Terminal Aerodrome Forecast
Issued by NWS Dodge City, KS

Home | Current Version | Previous Version | Graphics & Text | Print | Product List | Glossary Off
Versions: 1 2 3 4 5 6 7 8 9 10 11 12 13 14 15 16 17 18 19 20 21 22 23 24

000
FTUS43 KDDC 201404 AAA
TAFDDC
TAF AMD
KDDC 201404Z 2014/2112 00000KT 5SM BR OVC017
      TEMPO 2014/2015 1SM BR OVC007
     FM202200 25007KT P6SM BKN035
     FM210900 26008KT 3SM BR SCT200=

USA.gov is the U.S. government's official web portal to all federal, state and local government web resources and services.